createdAt,value
2019-05-19T00:00:09.005Z,99.99
2019-05-19T00:01:08.953Z,99.99
2019-05-19T00:02:08.919Z,99.99
2019-05-19T00:03:08.896Z,99.99
2019-05-19T00:04:08.839Z,99.99
2019-05-19T00:05:08.804Z,99.99
2019-05-19T00:06:08.794Z,99.99
2019-05-19T00:07:08.741Z,99.99
2019-05-19T00:08:08.699Z,99.99
2019-05-19T00:09:08.643Z,99.99
2019-05-19T00:10:08.639Z,99.99
2019-05-19T00:11:08.564Z,99.99
2019-05-19T00:12:08.525Z,99.99
2019-05-19T00:13:08.503Z,99.99
2019-05-19T00:14:08.457Z,99.99
2019-05-19T00:15:08.397Z,99.99
2019-05-19T00:16:08.362Z,99.99
2019-05-19T00:17:08.334Z,99.99
2019-05-19T00:18:08.280Z,99.99
2019-05-19T00:19:08.262Z,99.99
2019-05-19T00:20:08.206Z,99.99
2019-05-19T00:21:08.158Z,99.99
2019-05-19T00:22:08.115Z,99.99
2019-05-19T00:23:08.082Z,99.99
2019-05-19T00:24:08.072Z,99.99
2019-05-19T00:25:07.998Z,99.99
2019-05-19T00:26:07.974Z,99.99
2019-05-19T00:27:07.915Z,99.99
2019-05-19T00:28:07.879Z,99.99
2019-05-19T00:29:07.847Z,99.99
2019-05-19T00:30:07.828Z,99.99
2019-05-19T00:31:07.763Z,99.99
2019-05-19T00:32:07.728Z,99.99
2019-05-19T00:33:07.683Z,99.99
2019-05-19T00:34:07.637Z,99.99
2019-05-19T00:35:07.621Z,99.99
2019-05-19T00:36:07.559Z,99.99
2019-05-19T00:37:07.523Z,99.99
2019-05-19T00:38:07.484Z,99.99
2019-05-19T00:39:07.444Z,99.99
2019-05-19T00:40:07.401Z,99.99
2019-05-19T00:41:07.390Z,99.99
2019-05-19T00:42:07.323Z,99.99
2019-05-19T00:43:07.291Z,99.99
2019-05-19T00:44:07.241Z,99.99
2019-05-19T00:45:07.202Z,99.99
2019-05-19T00:46:07.159Z,99.99
2019-05-19T00:47:07.145Z,99.99
2019-05-19T00:48:07.082Z,99.99
2019-05-19T00:49:07.045Z,99.99
2019-05-19T00:50:07.021Z,99.99
2019-05-19T00:51:06.961Z,99.99
2019-05-19T00:52:06.923Z,99.99
2019-05-19T00:53:06.901Z,99.99
2019-05-19T00:54:06.835Z,99.99
2019-05-19T00:55:06.802Z,99.99
2019-05-19T00:56:06.761Z,99.99
2019-05-19T00:57:06.718Z,99.99
2019-05-19T00:58:06.697Z,99.99
2019-05-19T00:59:06.637Z,99.99
2019-05-19T01:00:06.595Z,99.99
2019-05-19T01:01:06.563Z,99.99
2019-05-19T01:02:06.527Z,99.99
2019-05-19T01:03:06.519Z,99.99
2019-05-19T01:04:06.441Z,99.99
2019-05-19T01:05:06.393Z,99.99
2019-05-19T01:06:06.357Z,99.99
2019-05-19T01:07:06.318Z,99.99
2019-05-19T01:08:06.302Z,99.99
2019-05-19T01:09:06.254Z,99.99
2019-05-19T01:10:06.200Z,99.99
2019-05-19T01:11:06.185Z,99.99
2019-05-19T01:12:06.116Z,99.99
2019-05-19T01:13:06.078Z,99.99
2019-05-19T01:14:06.066Z,99.99
2019-05-19T01:15:05.996Z,99.99
2019-05-19T01:16:05.965Z,99.99
2019-05-19T01:17:05.912Z,99.99
2019-05-19T01:18:05.869Z,99.99
2019-05-19T01:19:05.837Z,99.99
2019-05-19T01:20:05.817Z,99.99
2019-05-19T01:21:05.756Z,99.99
2019-05-19T01:22:05.729Z,99.99
2019-05-19T01:23:05.673Z,99.99
2019-05-19T01:24:05.635Z,99.99
2019-05-19T01:25:05.590Z,99.99
2019-05-19T01:26:05.576Z,99.99
2019-05-19T01:27:05.516Z,99.99
2019-05-19T01:28:05.473Z,99.99
2019-05-19T01:29:05.425Z,99.99
2019-05-19T01:30:05.410Z,99.99
2019-05-19T01:31:05.346Z,99.99
2019-05-19T01:32:05.330Z,99.99
2019-05-19T01:33:05.276Z,99.99
2019-05-19T01:34:05.261Z,99.99
2019-05-19T01:35:05.192Z,99.99
2019-05-19T01:36:05.154Z,99.99
2019-05-19T01:37:05.135Z,99.99
2019-05-19T01:38:05.088Z,99.99
2019-05-19T01:39:05.025Z,99.99
2019-05-19T01:40:04.983Z,99.99
2019-05-19T01:41:04.950Z,99.99
2019-05-19T01:42:04.912Z,99.99
2019-05-19T01:43:04.892Z,99.99
2019-05-19T01:44:04.820Z,99.99
2019-05-19T01:45:04.788Z,99.99
2019-05-19T01:46:04.747Z,99.99
2019-05-19T01:47:04.706Z,99.99
2019-05-19T01:48:04.678Z,99.99
2019-05-19T01:49:04.645Z,99.99
2019-05-19T01:50:17.105Z,99.99
2019-05-19T01:51:04.541Z,99.99
2019-05-19T01:52:04.502Z,99.99
2019-05-19T01:53:04.492Z,99.99
2019-05-19T01:54:04.430Z,99.99
2019-05-19T01:55:04.407Z,99.99
2019-05-19T01:56:04.343Z,99.99
2019-05-19T01:57:04.296Z,99.99
2019-05-19T01:58:04.253Z,99.99
2019-05-19T01:59:04.246Z,99.99
2019-05-19T02:00:04.181Z,99.99
2019-05-19T02:01:04.141Z,99.99
2019-05-19T02:02:04.099Z,99.99
2019-05-19T02:03:04.050Z,99.99
2019-05-19T02:04:04.037Z,99.99
2019-05-19T02:05:03.984Z,99.99
2019-05-19T02:06:03.936Z,99.99
2019-05-19T02:07:03.905Z,99.99
2019-05-19T02:08:03.877Z,99.99
2019-05-19T02:09:03.808Z,99.99
2019-05-19T02:10:03.768Z,99.99
2019-05-19T02:11:03.756Z,99.99
2019-05-19T02:12:03.692Z,99.99
2019-05-19T02:13:05.230Z,99.99
2019-05-19T02:14:03.614Z,99.99
2019-05-19T02:15:03.597Z,99.99
2019-05-19T02:16:03.535Z,99.99
2019-05-19T02:17:03.514Z,99.99
2019-05-19T02:18:03.453Z,99.99
2019-05-19T02:19:03.410Z,99.99
2019-05-19T02:20:03.372Z,99.99
2019-05-19T02:21:03.323Z,99.99
2019-05-19T02:22:03.313Z,99.99
2019-05-19T02:23:03.244Z,99.99
2019-05-19T02:24:03.204Z,99.99
2019-05-19T02:25:03.177Z,99.99
2019-05-19T02:26:03.136Z,99.99
2019-05-19T02:27:03.113Z,99.99
2019-05-19T02:28:03.058Z,99.99
2019-05-19T02:29:03.001Z,99.99
2019-05-19T02:30:03.131Z,99.99
2019-05-19T02:31:02.924Z,99.99
2019-05-19T02:32:02.911Z,99.99
2019-05-19T02:33:02.845Z,99.99
2019-05-19T02:34:02.814Z,99.99
2019-05-19T02:35:02.761Z,99.99
2019-05-19T02:36:02.737Z,99.99
2019-05-19T02:37:02.690Z,99.99
2019-05-19T02:38:02.643Z,99.99
2019-05-19T02:39:02.606Z,99.99
2019-05-19T02:40:02.564Z,99.99
2019-05-19T02:41:02.554Z,99.99
2019-05-19T02:42:02.473Z,99.99
2019-05-19T02:43:02.434Z,99.99
2019-05-19T02:44:02.389Z,99.99
2019-05-19T02:45:02.357Z,99.99
2019-05-19T02:46:02.315Z,99.99
2019-05-19T02:47:02.294Z,99.99
2019-05-19T02:48:02.239Z,99.99
2019-05-19T02:49:02.199Z,99.99
2019-05-19T02:50:02.163Z,99.99
2019-05-19T02:51:02.110Z,99.99
2019-05-19T02:52:02.083Z,99.99
2019-05-19T02:53:02.046Z,99.99
2019-05-19T02:54:01.988Z,99.99
2019-05-19T02:55:01.949Z,99.99
2019-05-19T02:56:01.904Z,99.99
2019-05-19T02:57:01.896Z,99.99
2019-05-19T02:58:01.823Z,99.99
2019-05-19T02:59:01.781Z,99.99
2019-05-19T03:00:01.765Z,99.99
2019-05-19T03:01:01.710Z,99.99
2019-05-19T03:02:01.652Z,99.99
2019-05-19T03:03:01.646Z,99.99
2019-05-19T03:04:01.584Z,99.99
2019-05-19T03:05:01.544Z,99.99
2019-05-19T03:06:01.492Z,99.99
2019-05-19T03:07:01.454Z,99.99
2019-05-19T03:08:01.410Z,99.99
2019-05-19T03:09:01.400Z,99.99
2019-05-19T03:10:01.367Z,99.99
2019-05-19T03:11:01.296Z,99.99
2019-05-19T03:12:01.252Z,99.99
2019-05-19T03:13:01.244Z,99.99
2019-05-19T03:14:01.193Z,99.99
2019-05-19T03:15:01.152Z,99.99
2019-05-19T03:16:01.104Z,99.99
2019-05-19T03:17:01.048Z,99.99
2019-05-19T03:18:01.012Z,99.99
2019-05-19T03:19:00.961Z,99.99
2019-05-19T03:20:00.923Z,99.99
2019-05-19T03:21:10.338Z,99.99
2019-05-19T03:22:00.846Z,99.99
2019-05-19T03:23:00.801Z,99.99
2019-05-19T03:24:00.767Z,99.99
2019-05-19T03:25:00.717Z,99.99
2019-05-19T03:26:00.695Z,99.99
2019-05-19T03:27:00.637Z,99.99
2019-05-19T03:28:00.598Z,99.99
2019-05-19T03:29:00.562Z,99.99
2019-05-19T03:30:00.520Z,99.99
2019-05-19T03:31:00.503Z,99.99
2019-05-19T03:32:00.445Z,99.99
2019-05-19T03:33:00.392Z,99.99
2019-05-19T03:34:00.347Z,99.99
2019-05-19T03:35:00.351Z,99.99
2019-05-19T03:36:00.297Z,99.99
2019-05-19T03:37:00.226Z,99.99
2019-05-19T03:38:00.186Z,99.99
2019-05-19T03:39:00.146Z,99.99
2019-05-19T03:40:00.103Z,99.99
2019-05-19T03:41:00.089Z,99.99
2019-05-19T03:42:00.034Z,99.99
2019-05-19T03:42:59.997Z,99.99
2019-05-19T03:44:00.015Z,99.99
2019-05-19T03:44:59.898Z,99.99
2019-05-19T03:45:59.855Z,99.99
2019-05-19T03:46:59.838Z,99.99
2019-05-19T03:47:59.775Z,99.99
2019-05-19T03:48:59.741Z,99.99
2019-05-19T03:49:59.701Z,99.99
2019-05-19T03:50:59.653Z,99.99
2019-05-19T03:51:59.639Z,99.99
2019-05-19T03:52:59.578Z,99.99
2019-05-19T03:53:59.560Z,99.99
2019-05-19T03:54:59.492Z,99.99
2019-05-19T03:55:59.455Z,99.99
2019-05-19T03:56:59.403Z,99.99
2019-05-19T03:57:59.391Z,99.99
2019-05-19T03:58:59.333Z,99.99
2019-05-19T03:59:59.311Z,99.99
2019-05-19T04:00:59.249Z,99.99
2019-05-19T04:01:59.218Z,99.99
2019-05-19T04:02:59.174Z,99.99
2019-05-19T04:03:59.133Z,99.99
2019-05-19T04:04:59.089Z,99.99
2019-05-19T04:05:59.067Z,99.99
2019-05-19T04:06:59.002Z,99.99
2019-05-19T04:07:58.961Z,99.99
2019-05-19T04:08:58.917Z,99.99
2019-05-19T04:09:58.875Z,99.99
2019-05-19T04:10:58.834Z,99.99
2019-05-19T04:11:58.811Z,99.99
2019-05-19T04:12:58.774Z,99.99
2019-05-19T04:13:58.718Z,99.99
2019-05-19T04:14:58.674Z,99.99
2019-05-19T04:15:58.661Z,99.99
2019-05-19T04:16:58.590Z,99.99
2019-05-19T04:17:58.571Z,99.99
2019-05-19T04:18:58.506Z,99.99
2019-05-19T04:19:58.469Z,99.99
2019-05-19T04:20:58.429Z,99.99
2019-05-19T04:21:58.408Z,99.99
2019-05-19T04:22:58.342Z,99.99
2019-05-19T04:23:58.304Z,99.99
2019-05-19T04:24:58.266Z,99.99
2019-05-19T04:25:58.252Z,99.99
2019-05-19T04:26:58.212Z,99.99
2019-05-19T04:27:58.145Z,99.99
2019-05-19T04:28:58.110Z,99.99
2019-05-19T04:29:58.057Z,99.99
2019-05-19T04:30:58.020Z,99.99
2019-05-19T04:31:57.974Z,99.99
2019-05-19T04:32:57.963Z,99.99
2019-05-19T04:33:57.899Z,99.99
2019-05-19T04:34:57.863Z,99.99
2019-05-19T04:35:57.821Z,99.99
2019-05-19T04:36:57.782Z,99.99
2019-05-19T04:37:57.752Z,99.99
2019-05-19T04:38:57.698Z,99.99
2019-05-19T04:39:57.660Z,99.99
2019-05-19T04:40:57.620Z,99.99
2019-05-19T04:41:57.573Z,99.99
2019-05-19T04:42:57.556Z,99.99
2019-05-19T04:43:57.495Z,99.99
2019-05-19T04:44:57.499Z,99.99
2019-05-19T04:45:57.417Z,99.99
2019-05-19T04:46:57.377Z,99.99
2019-05-19T04:47:57.342Z,99.99
2019-05-19T04:48:57.291Z,99.99
2019-05-19T04:49:57.253Z,99.99
2019-05-19T04:50:57.236Z,99.99
2019-05-19T04:52:06.749Z,99.99
2019-05-19T04:52:57.138Z,99.99
2019-05-19T04:53:57.097Z,99.99
2019-05-19T04:54:57.086Z,99.99
2019-05-19T04:55:57.012Z,99.99
2019-05-19T04:56:56.980Z,99.99
2019-05-19T04:57:56.939Z,99.99
2019-05-19T04:58:56.897Z,99.99
2019-05-19T04:59:56.859Z,99.99
2019-05-19T05:00:56.848Z,99.99
2019-05-19T05:01:56.770Z,99.99
2019-05-19T05:02:56.735Z,99.99
2019-05-19T05:03:56.692Z,99.99
2019-05-19T05:04:56.659Z,99.99
2019-05-19T05:05:56.616Z,99.99
2019-05-19T05:06:56.600Z,99.99
2019-05-19T05:07:56.541Z,99.99
2019-05-19T05:08:56.494Z,99.99
2019-05-19T05:09:56.456Z,99.99
2019-05-19T05:10:56.419Z,99.99
2019-05-19T05:11:56.407Z,99.99
2019-05-19T05:12:56.337Z,99.99
2019-05-19T05:13:56.297Z,99.99
2019-05-19T05:14:56.254Z,99.99
2019-05-19T05:15:56.218Z,99.99
2019-05-19T05:16:56.188Z,99.99
2019-05-19T05:17:56.173Z,99.99
2019-05-19T05:18:56.103Z,99.99
2019-05-19T05:19:56.073Z,99.99
2019-05-19T05:20:56.044Z,99.99
2019-05-19T05:21:55.989Z,99.99
2019-05-19T05:22:55.979Z,99.99
2019-05-19T05:23:55.927Z,99.99
2019-05-19T05:24:55.874Z,99.99
2019-05-19T05:25:55.830Z,99.99
2019-05-19T05:26:55.788Z,99.99
2019-05-19T05:27:55.773Z,99.99
2019-05-19T05:28:55.719Z,99.99
2019-05-19T05:29:55.727Z,99.99
2019-05-19T05:30:55.640Z,99.99
2019-05-19T05:31:55.607Z,99.99
2019-05-19T05:32:55.598Z,99.99
2019-05-19T05:33:55.544Z,99.99
2019-05-19T05:34:55.476Z,99.99
2019-05-19T05:35:55.444Z,99.99
2019-05-19T05:36:55.408Z,99.99
2019-05-19T05:37:55.367Z,99.99
2019-05-19T05:38:55.327Z,99.99
2019-05-19T05:39:55.320Z,99.99
2019-05-19T05:40:55.244Z,99.99
2019-05-19T05:41:55.236Z,99.99
2019-05-19T05:42:55.230Z,99.99
2019-05-19T05:43:55.141Z,99.99
2019-05-19T05:44:55.094Z,99.99
2019-05-19T05:45:55.084Z,99.99
2019-05-19T05:46:55.019Z,99.99
2019-05-19T05:47:54.977Z,99.99
2019-05-19T05:48:54.954Z,99.99
2019-05-19T05:49:54.912Z,99.99
2019-05-19T05:50:54.864Z,99.99
2019-05-19T05:51:54.848Z,99.99
2019-05-19T05:52:54.821Z,99.99
2019-05-19T05:53:54.764Z,99.99
2019-05-19T05:54:54.721Z,99.99
2019-05-19T05:55:54.680Z,99.99
2019-05-19T05:56:54.644Z,99.99
2019-05-19T05:57:54.630Z,99.99
2019-05-19T05:58:54.568Z,99.99
2019-05-19T05:59:54.533Z,99.99
2019-05-19T06:00:54.488Z,99.99
2019-05-19T06:01:54.456Z,99.99
2019-05-19T06:02:54.419Z,99.99
2019-05-19T06:03:54.402Z,99.99
2019-05-19T06:04:54.346Z,99.99
2019-05-19T06:05:54.312Z,99.99
2019-05-19T06:06:54.277Z,99.99
2019-05-19T06:07:54.237Z,99.99
2019-05-19T06:08:54.217Z,99.99
2019-05-19T06:09:54.154Z,99.99
2019-05-19T06:10:54.119Z,99.16
2019-05-19T06:11:54.085Z,96.22
2019-05-19T06:12:54.049Z,95.88
2019-05-19T06:13:54.049Z,93.56
2019-05-19T06:14:53.973Z,91.05
2019-05-19T06:15:53.935Z,90.61
2019-05-19T06:16:53.905Z,88.82
2019-05-19T06:17:53.881Z,88.53
2019-05-19T06:18:56.701Z,88.39
2019-05-19T06:19:53.828Z,86.10
2019-05-19T06:20:53.764Z,84.64
2019-05-19T06:21:53.755Z,82.75
2019-05-19T06:22:57.025Z,80.94
2019-05-19T06:23:53.652Z,80.13
2019-05-19T06:24:53.628Z,81.10
2019-05-19T06:25:53.590Z,80.52
2019-05-19T06:26:53.555Z,80.38
2019-05-19T06:27:53.550Z,82.72
2019-05-19T06:28:53.484Z,82.23
2019-05-19T06:29:53.446Z,81.21
2019-05-19T06:30:53.419Z,80.15
2019-05-19T06:31:53.409Z,80.19
2019-05-19T06:32:53.375Z,79.60
2019-05-19T06:33:53.313Z,79.50
2019-05-19T06:34:53.286Z,77.19
2019-05-19T06:35:53.249Z,77.70
2019-05-19T06:36:55.111Z,76.93
2019-05-19T06:37:53.186Z,77.67
2019-05-19T06:38:53.187Z,77.90
2019-05-19T06:39:53.121Z,76.78
2019-05-19T06:40:53.083Z,76.06
2019-05-19T06:41:53.042Z,76.35
2019-05-19T06:42:53.018Z,76.37
2019-05-19T06:43:53.005Z,74.58
2019-05-19T06:44:52.954Z,73.46
2019-05-19T06:45:52.914Z,73.88
2019-05-19T06:46:52.878Z,72.27
2019-05-19T06:47:52.883Z,72.52
2019-05-19T06:48:52.841Z,72.64
2019-05-19T06:49:52.813Z,74.60
2019-05-19T06:50:52.754Z,77.70
2019-05-19T06:51:52.724Z,75.51
2019-05-19T06:52:52.680Z,74.99
2019-05-19T06:53:52.651Z,76.42
2019-05-19T06:54:52.618Z,73.05
2019-05-19T06:55:52.611Z,76.91
2019-05-19T06:56:52.580Z,73.13
2019-05-19T06:57:52.525Z,72.93
2019-05-19T06:58:52.491Z,73.25
2019-05-19T06:59:52.462Z,75.21
2019-05-19T07:00:52.426Z,77.50
2019-05-19T07:01:52.416Z,80.26
2019-05-19T07:02:52.363Z,85.44
2019-05-19T07:03:52.354Z,84.19
2019-05-19T07:04:52.295Z,82.83
2019-05-19T07:05:52.264Z,83.52
2019-05-19T07:06:52.549Z,84.79
2019-05-19T07:07:52.194Z,86.91
2019-05-19T07:08:52.210Z,88.51
2019-05-19T07:09:58.549Z,91.06
2019-05-19T07:10:52.102Z,92.47
2019-05-19T07:11:52.072Z,94.82
2019-05-19T07:12:52.039Z,96.03
2019-05-19T07:13:52.003Z,96.51
2019-05-19T07:14:51.989Z,96.99
2019-05-19T07:15:51.935Z,97.52
2019-05-19T07:16:51.908Z,98.29
2019-05-19T07:17:51.894Z,99.26
2019-05-19T07:18:51.830Z,99.54
2019-05-19T07:19:51.845Z,99.69
2019-05-19T07:20:51.768Z,99.99
2019-05-19T07:21:51.733Z,97.28
2019-05-19T07:22:51.701Z,96.89
2019-05-19T07:23:51.666Z,97.96
2019-05-19T07:24:51.624Z,97.47
2019-05-19T07:25:51.621Z,99.16
2019-05-19T07:26:51.558Z,96.89
2019-05-19T07:27:51.525Z,95.45
2019-05-19T07:28:51.496Z,93.62
2019-05-19T07:29:51.463Z,93.43
2019-05-19T07:30:51.442Z,92.18
2019-05-19T07:31:51.421Z,94.73
2019-05-19T07:32:51.353Z,92.56
2019-05-19T07:33:51.317Z,92.51
2019-05-19T07:34:51.289Z,92.51
2019-05-19T07:35:51.255Z,92.32
2019-05-19T07:36:51.258Z,92.41
2019-05-19T07:37:51.190Z,91.16
2019-05-19T07:38:51.147Z,92.80
2019-05-19T07:39:51.112Z,94.10
2019-05-19T07:40:51.102Z,94.92
2019-05-19T07:41:51.053Z,93.57
2019-05-19T07:42:51.036Z,90.20
2019-05-19T07:43:50.980Z,90.39
2019-05-19T07:44:50.939Z,91.60
2019-05-19T07:45:50.929Z,91.93
2019-05-19T07:46:50.871Z,91.45
2019-05-19T07:47:50.834Z,91.45
2019-05-19T07:48:50.875Z,93.62
2019-05-19T07:49:50.771Z,91.78
2019-05-19T07:50:50.740Z,91.40
2019-05-19T07:51:50.700Z,91.45
2019-05-19T07:52:50.678Z,93.43
2019-05-19T07:53:50.681Z,93.52
2019-05-19T07:54:50.625Z,95.26
2019-05-19T07:55:50.595Z,96.22
2019-05-19T07:56:50.570Z,95.69
2019-05-19T07:57:50.502Z,95.89
2019-05-19T07:58:50.462Z,96.46
2019-05-19T07:59:50.430Z,96.99
2019-05-19T08:00:50.425Z,96.89
2019-05-19T08:01:50.405Z,92.56
2019-05-19T08:02:50.333Z,93.43
2019-05-19T08:03:50.300Z,93.33
2019-05-19T08:04:50.261Z,93.47
2019-05-19T08:05:50.254Z,93.76
2019-05-19T08:06:50.194Z,92.65
2019-05-19T08:07:50.163Z,91.06
2019-05-19T08:08:50.123Z,91.64
2019-05-19T08:09:50.087Z,93.62
2019-05-19T08:10:50.065Z,89.75
2019-05-19T08:11:50.047Z,88.69
2019-05-19T08:12:49.996Z,89.79
2019-05-19T08:13:49.965Z,87.92
2019-05-19T08:14:49.929Z,88.21
2019-05-19T08:15:49.922Z,87.24
2019-05-19T08:16:49.859Z,87.34
2019-05-19T08:17:49.837Z,90.09
2019-05-19T08:18:49.845Z,91.16
2019-05-19T08:19:49.781Z,89.95
2019-05-19T08:20:49.758Z,87.38
2019-05-19T08:21:49.705Z,90.33
2019-05-19T08:22:51.463Z,90.12
2019-05-19T08:23:59.990Z,85.58
2019-05-19T08:24:49.619Z,84.21
2019-05-19T08:25:49.568Z,82.81
2019-05-19T08:26:49.531Z,82.28
2019-05-19T08:27:49.501Z,81.98
2019-05-19T08:28:49.490Z,83.91
2019-05-19T08:29:49.446Z,79.45
2019-05-19T08:30:49.396Z,79.35
2019-05-19T08:31:49.384Z,80.92
2019-05-19T08:32:49.442Z,85.22
2019-05-19T08:33:49.329Z,79.41
2019-05-19T08:34:49.303Z,80.15
2019-05-19T08:35:49.510Z,80.24
2019-05-19T08:36:49.209Z,79.45
2019-05-19T08:37:49.170Z,79.45
2019-05-19T08:38:49.147Z,76.29
2019-05-19T08:39:49.126Z,76.87
2019-05-19T08:40:49.144Z,78.89
2019-05-19T08:41:49.114Z,78.99
2019-05-19T08:42:49.029Z,80.47
2019-05-19T08:43:48.986Z,78.38
2019-05-19T08:44:48.989Z,76.10
2019-05-19T08:45:48.935Z,75.51
2019-05-19T08:46:48.907Z,75.90
2019-05-19T08:47:48.881Z,76.48
2019-05-19T08:48:48.838Z,76.23
2019-05-19T08:49:48.837Z,78.31
2019-05-19T08:50:48.778Z,74.97
2019-05-19T08:51:48.754Z,76.32
2019-05-19T08:52:48.727Z,76.56
2019-05-19T08:53:48.694Z,76.54
2019-05-19T08:54:48.679Z,75.40
2019-05-19T08:55:48.627Z,76.23
2019-05-19T08:56:48.606Z,77.90
2019-05-19T08:57:48.573Z,77.80
2019-05-19T08:58:48.546Z,78.05
2019-05-19T08:59:48.539Z,75.57
2019-05-19T09:00:48.484Z,74.64
2019-05-19T09:01:48.452Z,74.45
2019-05-19T09:02:48.441Z,74.68
2019-05-19T09:03:48.421Z,75.71
2019-05-19T09:04:48.369Z,75.16
2019-05-19T09:05:48.339Z,73.52
2019-05-19T09:06:48.310Z,73.58
2019-05-19T09:07:48.279Z,75.03
2019-05-19T09:08:48.242Z,74.45
2019-05-19T09:09:48.269Z,75.72
2019-05-19T09:10:48.214Z,72.11
2019-05-19T09:11:48.178Z,69.61
2019-05-19T09:12:48.126Z,72.04
2019-05-19T09:13:48.123Z,70.06
2019-05-19T09:14:48.068Z,72.59
2019-05-19T09:15:48.062Z,72.71
2019-05-19T09:16:48.021Z,74.87
2019-05-19T09:17:47.986Z,74.10
2019-05-19T09:18:47.967Z,74.97
2019-05-19T09:19:47.931Z,72.09
2019-05-19T09:20:47.920Z,71.22
2019-05-19T09:21:47.897Z,70.35
2019-05-19T09:22:47.835Z,71.31
2019-05-19T09:23:47.820Z,73.38
2019-05-19T09:24:47.790Z,74.10
2019-05-19T09:25:47.784Z,74.23
2019-05-19T09:26:47.729Z,72.81
2019-05-19T09:27:47.698Z,71.29
2019-05-19T09:28:47.675Z,70.16
2019-05-19T09:29:47.646Z,69.26
2019-05-19T09:30:47.684Z,66.93
2019-05-19T09:31:48.363Z,67.76
2019-05-19T09:32:47.555Z,68.08
2019-05-19T09:33:47.562Z,69.29
2019-05-19T09:34:47.500Z,68.22
2019-05-19T09:35:47.469Z,67.70
2019-05-19T09:36:47.446Z,65.89
2019-05-19T09:37:47.425Z,67.05
2019-05-19T09:38:47.391Z,67.11
2019-05-19T09:39:47.390Z,69.58
2019-05-19T09:40:47.331Z,67.60
2019-05-19T09:41:47.311Z,66.50
2019-05-19T09:42:47.425Z,66.47
2019-05-19T09:43:47.256Z,67.34
2019-05-19T09:44:47.246Z,68.44
2019-05-19T09:45:47.192Z,66.83
2019-05-19T09:46:47.170Z,67.77
2019-05-19T09:47:47.144Z,66.44
2019-05-19T09:48:47.162Z,66.69
2019-05-19T09:49:47.095Z,62.73
2019-05-19T09:50:47.067Z,64.17
2019-05-19T09:51:47.087Z,63.81
2019-05-19T09:52:47.011Z,63.52
2019-05-19T09:53:47.013Z,63.68
2019-05-19T09:54:46.958Z,64.43
2019-05-19T09:55:46.935Z,66.76
2019-05-19T09:56:46.916Z,68.15
2019-05-19T09:57:46.887Z,67.18
2019-05-19T09:58:46.859Z,65.69
2019-05-19T09:59:46.859Z,67.21
2019-05-19T10:00:46.811Z,69.25
2019-05-19T10:01:46.784Z,70.51
2019-05-19T10:02:46.757Z,70.42
2019-05-19T10:03:46.737Z,69.51
2019-05-19T10:04:46.702Z,68.57
2019-05-19T10:05:46.703Z,70.03
2019-05-19T10:06:46.687Z,71.61
2019-05-19T10:07:46.649Z,70.67
2019-05-19T10:08:46.600Z,69.29
2019-05-19T10:09:46.571Z,66.53
2019-05-19T10:10:46.547Z,67.50
2019-05-19T10:11:46.531Z,67.34
2019-05-19T10:12:46.481Z,66.34
2019-05-19T10:13:46.483Z,67.18
2019-05-19T10:14:46.442Z,66.96
2019-05-19T10:15:46.410Z,65.59
2019-05-19T10:16:46.383Z,64.23
2019-05-19T10:17:46.348Z,64.04
2019-05-19T10:18:46.353Z,65.79
2019-05-19T10:19:46.301Z,62.65
2019-05-19T10:20:46.281Z,63.04
2019-05-19T10:21:46.276Z,64.62
2019-05-19T10:22:46.221Z,65.33
2019-05-19T10:23:46.196Z,61.48
2019-05-19T10:25:04.210Z,62.48
2019-05-19T10:25:46.127Z,64.62
2019-05-19T10:26:46.111Z,62.65
2019-05-19T10:27:46.080Z,64.11
2019-05-19T10:28:46.057Z,62.45
2019-05-19T10:29:46.039Z,64.43
2019-05-19T10:30:46.030Z,63.04
2019-05-19T10:31:45.969Z,64.78
2019-05-19T10:32:45.947Z,62.55
2019-05-19T10:33:45.914Z,61.97
2019-05-19T10:34:45.884Z,62.42
2019-05-19T10:35:45.859Z,63.13
2019-05-19T10:36:45.849Z,63.92
2019-05-19T10:37:45.798Z,66.92
2019-05-19T10:38:45.772Z,68.21
2019-05-19T10:39:45.770Z,68.34
2019-05-19T10:40:45.717Z,67.37
2019-05-19T10:41:45.702Z,66.30
2019-05-19T10:42:45.663Z,67.31
2019-05-19T10:43:45.632Z,66.82
2019-05-19T10:44:45.601Z,66.99
2019-05-19T10:45:45.606Z,67.34
2019-05-19T10:46:45.554Z,69.57
2019-05-19T10:47:45.519Z,68.50
2019-05-19T10:48:45.483Z,67.40
2019-05-19T10:49:45.497Z,69.57
2019-05-19T10:50:45.443Z,68.08
2019-05-19T10:51:45.452Z,69.18
2019-05-19T10:52:45.368Z,67.34
2019-05-19T10:53:45.338Z,67.34
2019-05-19T10:54:45.310Z,70.63
2019-05-19T10:55:45.286Z,68.40
2019-05-19T10:56:45.248Z,67.82
2019-05-19T10:57:45.242Z,67.57
2019-05-19T10:58:45.195Z,68.24
2019-05-19T10:59:45.178Z,66.50
2019-05-19T11:00:45.141Z,67.40
2019-05-19T11:01:45.108Z,66.95
2019-05-19T11:02:45.091Z,65.01
2019-05-19T11:03:45.037Z,67.47
2019-05-19T11:04:45.018Z,66.72
2019-05-19T11:05:44.987Z,63.98
2019-05-19T11:06:44.959Z,63.98
2019-05-19T11:07:44.955Z,64.07
2019-05-19T11:08:44.893Z,63.33
2019-05-19T11:09:44.898Z,65.79
2019-05-19T11:10:44.834Z,68.05
2019-05-19T11:11:44.816Z,67.37
2019-05-19T11:12:46.953Z,67.37
2019-05-19T11:13:44.783Z,65.24
2019-05-19T11:14:44.726Z,64.27
2019-05-19T11:15:44.693Z,66.02
2019-05-19T11:16:44.665Z,67.31
2019-05-19T11:17:44.630Z,65.53
2019-05-19T11:18:44.606Z,65.59
2019-05-19T11:19:44.604Z,67.14
2019-05-19T11:20:44.541Z,67.44
2019-05-19T11:21:44.518Z,67.53
2019-05-19T11:22:44.480Z,69.27
2019-05-19T11:23:44.455Z,68.21
2019-05-19T11:24:44.455Z,68.05
2019-05-19T11:25:51.392Z,66.08
2019-05-19T11:26:44.368Z,63.53
2019-05-19T11:27:44.341Z,64.04
2019-05-19T11:28:44.309Z,64.27
2019-05-19T11:29:44.277Z,66.56
2019-05-19T11:30:44.270Z,64.53
2019-05-19T11:31:44.210Z,65.11
2019-05-19T11:32:44.194Z,66.02
2019-05-19T11:33:44.160Z,63.59
2019-05-19T11:34:44.123Z,65.53
2019-05-19T11:35:44.122Z,65.34
2019-05-19T11:36:44.071Z,63.30
2019-05-19T11:37:44.041Z,64.07
2019-05-19T11:38:44.011Z,67.02
2019-05-19T11:39:43.982Z,63.82
2019-05-19T11:40:43.945Z,62.52
2019-05-19T11:41:43.947Z,63.69
2019-05-19T11:42:46.777Z,64.17
2019-05-19T11:43:43.870Z,63.78
2019-05-19T11:44:43.836Z,65.56
2019-05-19T11:45:43.805Z,63.91
2019-05-19T11:46:43.788Z,65.17
2019-05-19T11:47:43.769Z,66.34
2019-05-19T11:48:43.711Z,66.66
2019-05-19T11:49:43.679Z,64.40
2019-05-19T11:50:43.656Z,66.14
2019-05-19T11:51:43.623Z,65.69
2019-05-19T11:52:43.589Z,65.20
2019-05-19T11:53:43.585Z,64.01
2019-05-19T11:54:43.529Z,63.30
2019-05-19T11:55:43.499Z,64.56
2019-05-19T11:56:43.479Z,66.05
2019-05-19T11:57:43.444Z,64.30
2019-05-19T11:58:43.439Z,62.68
2019-05-19T11:59:43.384Z,62.62
2019-05-19T12:00:43.403Z,67.21
2019-05-19T12:01:43.321Z,65.11
2019-05-19T12:02:43.294Z,63.01
2019-05-19T12:03:43.267Z,63.88
2019-05-19T12:04:43.287Z,67.11
2019-05-19T12:05:43.209Z,64.62
2019-05-19T12:06:43.187Z,63.81
2019-05-19T12:07:43.176Z,63.81
2019-05-19T12:08:43.138Z,62.94
2019-05-19T12:09:43.110Z,60.28
2019-05-19T12:10:43.075Z,60.28
2019-05-19T12:11:43.034Z,61.91
2019-05-19T12:12:43.001Z,62.71
2019-05-19T12:13:42.994Z,62.01
2019-05-19T12:14:42.947Z,63.39
2019-05-19T12:15:42.910Z,61.81
2019-05-19T12:16:42.892Z,61.88
2019-05-19T12:17:42.866Z,62.95
2019-05-19T12:18:42.861Z,62.72
2019-05-19T12:19:42.804Z,66.89
2019-05-19T12:20:42.773Z,64.65
2019-05-19T12:21:42.745Z,64.62
2019-05-19T12:22:42.726Z,61.14
2019-05-19T12:23:42.696Z,59.97
2019-05-19T12:24:42.675Z,58.81
2019-05-19T12:25:42.626Z,59.61
2019-05-19T12:26:42.597Z,60.49
2019-05-19T12:27:42.579Z,59.81
2019-05-19T12:28:42.552Z,59.94
2019-05-19T12:29:42.544Z,60.04
2019-05-19T12:30:42.494Z,60.21
2019-05-19T12:31:42.469Z,61.08
2019-05-19T12:32:42.465Z,60.88
2019-05-19T12:33:51.598Z,60.72
2019-05-19T12:34:42.372Z,60.40
2019-05-19T12:35:42.359Z,60.91
2019-05-19T12:36:42.308Z,60.43
2019-05-19T12:37:42.278Z,61.30
2019-05-19T12:38:42.243Z,61.11
2019-05-19T12:39:42.206Z,62.10
2019-05-19T12:40:42.244Z,61.33
2019-05-19T12:41:42.151Z,59.97
2019-05-19T12:42:42.145Z,62.40
2019-05-19T12:43:42.135Z,62.69
2019-05-19T12:44:42.053Z,60.46
2019-05-19T12:45:42.057Z,61.24
2019-05-19T12:46:42.013Z,60.46
2019-05-19T12:47:41.964Z,61.33
2019-05-19T12:48:41.937Z,63.30
2019-05-19T12:49:41.903Z,62.33
2019-05-19T12:50:41.873Z,59.33
2019-05-19T12:51:41.872Z,60.00